Time;durP1;ratioP1;P1;durP2;ratioP2;P2;SDS_P1;SDS_P2;PMS_P1;PMS_P2;Temp;Humidity;BMP_temperature;BMP_pressure;BME280_temperature;BME280_humidity;BME280_pressure;Samples;Min_cycle;Max_cycle;Signal;HPM_P1;HPM_P2
2022/03/21 00:00:39;;;;;;;17.63;12.50;;;5.30;1.00;196.50;224877.00;;;;7395932;19;20154;-76
2022/03/21 00:03:09;;;;;;;17.23;13.37;;;5.20;1.00;196.50;224877.00;;;;7396340;19;20140;-75
2022/03/21 00:05:45;;;;;;;17.67;13.73;;;5.20;1.00;196.50;224877.00;;;;7396090;19;20208;-76
2022/03/21 00:08:17;;;;;;;17.13;12.37;;;5.20;1.00;196.50;224877.00;;;;7397516;19;20611;-75
2022/03/21 00:10:54;;;;;;;16.03;11.93;;;5.10;1.00;196.50;224877.00;;;;7395810;19;20197;-75
2022/03/21 00:13:23;;;;;;;18.67;13.33;;;5.10;1.00;196.50;224877.00;;;;7395972;19;20164;-75
2022/03/21 00:15:52;;;;;;;19.93;12.23;;;5.20;1.00;196.50;224877.00;;;;7396300;19;20144;-76
2022/03/21 00:18:26;;;;;;;16.57;12.10;;;5.30;1.00;196.50;224877.00;;;;7395145;19;20488;-80
2022/03/21 00:20:55;;;;;;;18.73;12.40;;;5.30;1.00;196.50;224877.00;;;;7397198;19;20160;-76
2022/03/21 00:23:24;;;;;;;18.37;12.07;;;5.30;1.00;196.50;224877.00;;;;7391990;19;20129;-77
2022/03/21 00:26:11;;;;;;;19.43;12.80;;;5.20;1.00;196.50;224877.00;;;;7390311;19;20216;-76
2022/03/21 00:28:45;;;;;;;18.50;12.00;;;5.10;1.00;196.50;224877.00;;;;7396773;19;20136;-76
2022/03/21 00:31:19;;;;;;;17.00;13.27;;;5.00;1.00;196.50;224877.00;;;;7394009;19;20167;-77
2022/03/21 00:33:46;;;;;;;17.17;12.57;;;5.00;1.00;196.50;224877.00;;;;7394800;19;20155;-76
2022/03/21 00:36:13;;;;;;;17.33;12.80;;;4.90;1.00;196.50;224877.00;;;;7395351;19;20525;-76
2022/03/21 00:39:07;;;;;;;20.10;12.90;;;4.80;1.00;196.50;224877.00;;;;7397401;19;20201;-76
2022/03/21 00:41:34;;;;;;;17.93;12.47;;;4.80;1.00;196.50;224877.00;;;;7395602;19;20722;-75
2022/03/21 00:44:08;;;;;;;16.07;12.30;;;4.80;1.00;196.50;224877.00;;;;7395428;19;20141;-77
2022/03/21 00:46:36;;;;;;;17.00;11.53;;;4.70;1.00;196.50;224877.00;;;;7396506;19;20124;-77
2022/03/21 00:49:08;;;;;;;18.97;12.67;;;4.60;1.00;196.50;224877.00;;;;7396265;19;20144;-76
2022/03/21 00:51:42;;;;;;;20.33;12.50;;;4.60;1.00;196.50;224877.00;;;;7395400;19;20136;-76
2022/03/21 00:54:09;;;;;;;17.07;12.07;;;4.70;1.00;196.50;224877.00;;;;7392766;19;20129;-75
2022/03/21 00:56:36;;;;;;;17.13;12.00;;;4.80;1.00;196.50;224877.00;;;;7394873;19;20165;-76
2022/03/21 00:59:10;;;;;;;16.17;12.30;;;4.80;1.00;196.50;224877.00;;;;7395602;19;20141;-76
2022/03/21 01:01:37;;;;;;;16.73;12.30;;;4.70;1.00;196.50;224877.00;;;;7394102;19;20125;-75
2022/03/21 01:04:04;;;;;;;16.10;11.83;;;4.40;1.00;196.50;224877.00;;;;7395707;19;20161;-77
2022/03/21 01:06:38;;;;;;;16.70;11.90;;;4.30;1.00;196.50;224877.00;;;;7396385;19;20462;-76
2022/03/21 01:09:05;;;;;;;16.43;11.87;;;4.20;1.00;196.50;224877.00;;;;7394691;19;20472;-76
2022/03/21 01:11:32;;;;;;;18.17;12.10;;;4.20;1.00;196.50;224877.00;;;;7393839;19;20540;-76
2022/03/21 01:14:06;;;;;;;21.07;12.40;;;4.30;1.00;196.50;224877.00;;;;7394664;19;20125;-76
2022/03/21 01:16:33;;;;;;;17.20;12.50;;;4.40;1.00;196.50;224877.00;;;;7394799;19;20615;-74
2022/03/21 01:19:00;;;;;;;18.03;12.93;;;4.30;1.00;196.50;224877.00;;;;7394231;19;20491;-76
2022/03/21 01:21:34;;;;;;;16.40;12.50;;;4.40;1.00;196.50;224877.00;;;;7392813;19;20925;-76
2022/03/21 01:24:02;;;;;;;16.83;12.30;;;4.40;1.00;196.50;224877.00;;;;7394334;19;20192;-77
2022/03/21 01:26:29;;;;;;;16.70;12.10;;;4.40;1.00;196.50;224877.00;;;;7391571;19;20274;-76
2022/03/21 01:29:02;;;;;;;17.30;12.27;;;4.50;1.00;196.50;224877.00;;;;7393750;19;20608;-75
2022/03/21 01:31:29;;;;;;;14.50;11.93;;;4.50;1.00;196.50;224877.00;;;;7393406;19;20197;-77
2022/03/21 01:33:56;;;;;;;17.37;11.73;;;4.70;1.00;196.50;224877.00;;;;7394117;19;20188;-75
2022/03/21 01:36:30;;;;;;;20.47;12.43;;;4.70;1.00;196.50;224877.00;;;;7393173;19;20170;-76
2022/03/21 01:38:57;;;;;;;15.17;11.73;;;4.80;1.00;196.50;224877.00;;;;7393317;19;20556;-76
2022/03/21 01:41:24;;;;;;;15.77;11.60;;;4.90;1.00;196.50;224877.00;;;;7393328;19;20144;-79
2022/03/21 01:44:02;;;;;;;15.73;11.80;;;4.90;1.00;196.50;224877.00;;;;7393729;19;20505;-74
2022/03/21 01:46:30;;;;;;;16.03;12.10;;;5.00;1.00;196.50;224877.00;;;;7393196;19;20474;-76
2022/03/21 01:48:59;;;;;;;16.97;11.90;;;4.80;1.00;196.50;224877.00;;;;7393004;19;20129;-76
2022/03/21 01:51:35;;;;;;;17.63;11.57;;;4.70;1.00;196.50;224877.00;;;;7395114;19;20586;-76
2022/03/21 01:56:57;;;;;;;16.33;11.90;;;4.30;1.00;196.50;224877.00;;;;7392761;19;20159;-76
2022/03/21 01:59:26;;;;;;;15.80;11.50;;;3.90;1.00;196.50;224877.00;;;;7392213;19;20133;-76
2022/03/21 02:01:54;;;;;;;15.27;11.50;;;3.70;1.00;196.50;224877.00;;;;7391550;19;20137;-76
2022/03/21 02:04:27;;;;;;;18.73;12.00;;;3.50;1.00;196.50;224877.00;;;;7393096;19;20113;-76
2022/03/21 02:06:55;;;;;;;16.20;12.37;;;3.30;1.00;196.50;224877.00;;;;7393761;19;20133;-76
2022/03/21 02:09:23;;;;;;;18.13;12.00;;;3.10;1.00;196.50;224877.00;;;;7392686;19;20539;-77
2022/03/21 02:11:57;;;;;;;16.97;11.47;;;2.90;1.00;196.50;224877.00;;;;7394134;19;20160;-76
2022/03/21 02:14:25;;;;;;;18.97;12.27;;;2.70;1.00;196.50;224877.00;;;;7392057;19;20711;-75
2022/03/21 02:16:52;;;;;;;17.70;12.50;;;2.60;9.50;196.50;224877.00;;;;7391933;19;20606;-77
2022/03/21 02:19:32;;;;;;;18.77;12.57;;;2.40;19.30;196.50;224877.00;;;;7392674;19;20609;-76
2022/03/21 02:22:36;;;;;;;16.27;11.60;;;2.30;64.10;196.50;224877.00;;;;7391347;19;20140;-75
2022/03/21 02:25:38;;;;;;;17.07;12.70;;;2.20;99.40;196.50;224877.00;;;;7391305;19;20196;-77
2022/03/21 02:28:16;;;;;;;16.07;12.40;;;2.20;99.90;196.50;224877.00;;;;7391981;19;20152;-76
2022/03/21 02:30:51;;;;;;;18.23;12.20;;;2.20;99.60;196.50;224877.00;;;;7392812;19;20134;-75
2022/03/21 02:33:19;;;;;;;17.50;12.13;;;2.30;99.90;196.50;224877.00;;;;7391420;19;20141;-75
2022/03/21 02:35:50;;;;;;;19.90;12.80;;;2.40;50.20;196.50;224877.00;;;;7390948;19;20151;-75
2022/03/21 02:38:25;;;;;;;17.67;11.80;;;2.50;12.80;196.50;224877.00;;;;7391181;19;20137;-77
2022/03/21 02:40:53;;;;;;;15.83;11.77;;;2.90;1.00;196.50;224877.00;;;;7392148;19;20141;-75
2022/03/21 02:43:20;;;;;;;16.93;11.53;;;3.20;1.00;196.50;224877.00;;;;7390645;19;20144;-76
2022/03/21 02:46:06;;;;;;;17.50;11.80;;;3.50;1.00;196.50;224877.00;;;;7391072;19;20140;-77
2022/03/21 02:48:34;;;;;;;17.87;12.20;;;3.70;1.00;196.50;224877.00;;;;7391718;19;20151;-77
2022/03/21 02:51:10;;;;;;;15.57;11.67;;;3.80;1.00;196.50;224877.00;;;;7391781;19;20604;-75
2022/03/21 02:53:39;;;;;;;15.30;11.23;;;3.90;1.00;196.50;224877.00;;;;7392541;19;20117;-75
2022/03/21 02:56:06;;;;;;;17.90;12.33;;;4.00;1.00;196.50;224877.00;;;;7390676;19;20147;-77
2022/03/21 02:58:40;;;;;;;17.57;11.60;;;3.90;1.00;196.50;224877.00;;;;7392643;19;20463;-77
2022/03/21 03:01:12;;;;;;;17.97;12.00;;;3.90;1.00;196.50;224877.00;;;;7390315;19;20145;-75
2022/03/21 03:03:40;;;;;;;16.63;11.07;;;4.00;1.00;196.50;224877.00;;;;7390661;19;20140;-76
2022/03/21 03:06:15;;;;;;;16.77;11.07;;;4.00;1.00;196.50;224877.00;;;;7390536;19;20556;-76
2022/03/21 03:08:43;;;;;;;15.53;11.17;;;3.90;1.00;196.50;224877.00;;;;7391521;19;20116;-77
2022/03/21 03:11:11;;;;;;;15.57;11.17;;;3.80;1.00;196.50;224877.00;;;;7391241;19;20137;-75
2022/03/21 03:13:45;;;;;;;14.67;11.00;;;3.90;1.00;196.50;224877.00;;;;7390920;19;20498;-76
2022/03/21 03:16:12;;;;;;;16.73;11.50;;;3.90;1.00;196.50;224877.00;;;;7390198;19;20133;-77
2022/03/21 03:18:48;;;;;;;15.73;10.23;;;3.90;1.00;196.50;224877.00;;;;7390952;19;20668;-76
2022/03/21 03:21:33;;;;;;;15.57;10.57;;;3.70;1.00;196.50;224877.00;;;;7389795;19;20487;-76
2022/03/21 03:24:01;;;;;;;15.07;10.87;;;3.50;1.00;196.50;224877.00;;;;7390132;19;20216;-76
2022/03/21 03:26:41;;;;;;;15.37;11.00;;;3.40;1.00;196.50;224877.00;;;;7385610;19;20172;-78
2022/03/21 03:29:09;;;;;;;14.53;10.60;;;3.10;1.00;196.50;224877.00;;;;7389228;19;20612;-77
2022/03/21 03:31:44;;;;;;;16.93;11.10;;;2.90;1.00;196.50;224877.00;;;;7388599;19;20616;-76
2022/03/21 03:34:12;;;;;;;16.03;11.93;;;2.60;1.00;196.50;224877.00;;;;7388035;19;20129;-77
2022/03/21 03:36:39;;;;;;;18.83;11.63;;;2.40;4.90;196.50;224877.00;;;;7388335;19;20144;-77
2022/03/21 03:39:13;;;;;;;16.87;11.30;;;2.40;3.70;196.50;224877.00;;;;7388947;19;20137;-76
2022/03/21 03:41:41;;;;;;;17.50;12.00;;;2.30;18.70;196.50;224877.00;;;;7386751;19;20625;-76
2022/03/21 03:44:10;;;;;;;14.00;10.50;;;2.30;20.80;196.50;224877.00;;;;7387245;19;20151;-76
2022/03/21 03:46:45;;;;;;;15.07;11.10;;;2.30;39.30;196.50;224877.00;;;;7388084;19;20608;-77
2022/03/21 03:49:12;;;;;;;16.97;11.20;;;2.30;53.90;196.50;224877.00;;;;7387279;19;20644;-77
2022/03/21 03:51:39;;;;;;;14.97;11.30;;;2.30;62.30;196.50;224877.00;;;;7386994;19;20154;-76
2022/03/21 03:54:13;;;;;;;16.93;11.43;;;2.40;45.00;196.50;224877.00;;;;7387781;19;20645;-77
2022/03/21 03:56:40;;;;;;;17.30;11.23;;;2.60;6.10;196.50;224877.00;;;;7387906;19;20637;-76
2022/03/21 03:59:07;;;;;;;16.57;11.20;;;2.70;1.00;196.50;224877.00;;;;7386805;19;20139;-76
2022/03/21 04:01:41;;;;;;;17.53;11.50;;;2.80;1.00;196.50;224877.00;;;;7385940;19;20240;-76
2022/03/21 04:04:08;;;;;;;15.70;11.43;;;2.90;1.00;196.50;224877.00;;;;7389339;19;20129;-75
2022/03/21 04:06:35;;;;;;;16.03;11.47;;;2.90;1.00;196.50;224877.00;;;;7387110;19;20125;-76
2022/03/21 04:09:09;;;;;;;12.67;9.87;;;3.00;1.00;196.50;224877.00;;;;7386783;19;20129;-75
2022/03/21 04:11:36;;;;;;;16.80;10.80;;;3.00;1.00;196.50;224877.00;;;;7387312;19;20604;-77
2022/03/21 04:14:03;;;;;;;15.60;9.90;;;3.00;1.00;196.50;224877.00;;;;7388798;19;20140;-77
2022/03/21 04:16:44;;;;;;;14.57;9.90;;;3.00;1.00;196.50;224877.00;;;;7386986;19;20133;-77
2022/03/21 04:19:13;;;;;;;13.50;10.03;;;3.10;1.00;196.50;224877.00;;;;7386172;19;20158;-76
2022/03/21 04:21:47;;;;;;;18.70;10.50;;;3.10;1.00;196.50;224877.00;;;;7386543;19;20136;-76
2022/03/21 04:24:14;;;;;;;15.90;10.00;;;3.10;1.00;196.50;224877.00;;;;7386925;19;20196;-77
2022/03/21 04:26:48;;;;;;;15.70;10.33;;;3.20;1.00;196.50;224877.00;;;;6886607;19;9781511;-76
2022/03/21 04:29:29;;;;;;;15.97;11.07;;;3.20;1.00;196.50;224877.00;;;;7390969;19;20607;-76
2022/03/21 04:31:56;;;;;;;16.00;10.57;;;3.40;1.00;196.50;224877.00;;;;7395817;19;20144;-76
2022/03/21 04:34:30;;;;;;;11.30;8.80;;;3.40;1.00;196.50;224877.00;;;;7396449;19;20212;-75
2022/03/21 04:36:57;;;;;;;15.50;10.53;;;3.50;1.00;196.50;224877.00;;;;7395553;19;20596;-76
2022/03/21 04:39:24;;;;;;;18.47;10.73;;;3.50;1.00;196.50;224877.00;;;;7395263;19;20596;-76
2022/03/21 04:41:58;;;;;;;14.90;10.30;;;3.40;1.00;196.50;224877.00;;;;7395375;19;20626;-76
2022/03/21 04:44:25;;;;;;;16.13;10.90;;;3.30;1.00;196.50;224877.00;;;;7394969;19;20220;-76
2022/03/21 04:46:52;;;;;;;16.13;10.33;;;3.30;1.00;196.50;224877.00;;;;7395080;19;20592;-75
2022/03/21 04:49:26;;;;;;;16.97;10.73;;;3.30;1.00;196.50;224877.00;;;;7395379;19;20129;-76
2022/03/21 04:51:53;;;;;;;17.07;11.40;;;3.30;1.00;196.50;224877.00;;;;7395249;19;20626;-75
2022/03/21 04:54:20;;;;;;;16.07;10.90;;;3.20;1.00;196.50;224877.00;;;;7394964;19;20705;-75
2022/03/21 04:56:55;;;;;;;19.57;11.80;;;3.10;1.00;196.50;224877.00;;;;7394256;19;20161;-76
2022/03/21 04:59:22;;;;;;;14.57;11.03;;;3.00;15.80;196.50;224877.00;;;;7395656;19;20615;-76
2022/03/21 05:01:49;;;;;;;16.77;10.70;;;3.00;17.60;196.50;224877.00;;;;7393383;19;20160;-76
2022/03/21 05:04:23;;;;;;;16.13;11.10;;;3.00;36.00;196.50;224877.00;;;;7394496;19;20148;-75
2022/03/21 05:06:50;;;;;;;18.50;11.90;;;3.00;39.40;196.50;224877.00;;;;7395018;19;20141;-77
2022/03/21 05:09:17;;;;;;;17.30;11.73;;;3.10;31.70;196.50;224877.00;;;;7395802;19;20141;-75
2022/03/21 05:11:52;;;;;;;16.73;11.73;;;3.10;36.80;196.50;224877.00;;;;7395457;19;20153;-75
2022/03/21 05:14:19;;;;;;;19.70;12.67;;;3.10;37.20;196.50;224877.00;;;;7393760;19;20147;-77
2022/03/21 05:16:50;;;;;;;18.33;12.33;;;3.20;30.60;196.50;224877.00;;;;7396483;19;20592;-76
2022/03/21 05:19:24;;;;;;;18.63;11.50;;;3.20;29.40;196.50;224877.00;;;;7394475;19;20140;-76
2022/03/21 05:21:51;;;;;;;19.10;12.13;;;3.20;23.60;196.50;224877.00;;;;7393123;19;20588;-76
2022/03/21 05:35:56;;;;;;;16.53;11.10;;;3.30;10.40;196.50;224877.00;;;;7393226;19;20166;-77
2022/03/21 05:38:31;;;;;;;16.27;11.07;;;3.40;1.00;196.50;224877.00;;;;7393384;19;20144;-75
2022/03/21 05:41:00;;;;;;;15.80;11.53;;;3.40;9.10;196.50;224877.00;;;;7392361;19;20611;-75
2022/03/21 05:43:29;;;;;;;18.53;11.93;;;3.40;1.00;196.50;224877.00;;;;7391991;19;20726;-77
2022/03/21 05:46:03;;;;;;;16.23;11.93;;;3.50;1.00;196.50;224877.00;;;;7394069;19;20523;-76
2022/03/21 05:48:50;;;;;;;19.53;11.87;;;3.50;1.00;196.50;224877.00;;;;7393067;19;20160;-76
2022/03/21 05:51:28;;;;;;;16.40;11.20;;;3.60;1.00;196.50;224877.00;;;;7394642;19;20160;-76
2022/03/21 05:53:58;;;;;;;19.47;11.50;;;3.70;1.00;196.50;224877.00;;;;7393007;19;20140;-76
2022/03/21 05:56:32;;;;;;;19.20;12.97;;;3.80;1.00;196.50;224877.00;;;;7392622;19;20472;-76
2022/03/21 06:01:52;;;;;;;15.93;11.20;;;3.80;1.00;196.50;224877.00;;;;7393250;19;20129;-74
2022/03/21 06:04:21;;;;;;;16.73;11.33;;;3.80;1.00;196.50;224877.00;;;;7393506;19;20113;-75
2022/03/21 06:06:49;;;;;;;17.10;11.67;;;3.90;1.00;196.50;224877.00;;;;7392238;19;20136;-75
2022/03/21 06:09:22;;;;;;;16.43;11.67;;;3.90;1.00;196.50;224877.00;;;;7393338;19;20141;-75
2022/03/21 06:11:49;;;;;;;15.67;11.50;;;4.00;1.00;196.50;224877.00;;;;7392931;19;20141;-75
2022/03/21 06:14:20;;;;;;;15.50;11.73;;;4.00;1.00;196.50;224877.00;;;;7392213;19;20159;-75
2022/03/21 06:16:54;;;;;;;20.13;11.77;;;4.20;1.00;196.50;224877.00;;;;7392002;19;20522;-76
2022/03/21 06:19:21;;;;;;;19.10;11.70;;;4.40;1.00;196.50;224877.00;;;;7393222;19;20141;-75
2022/03/21 06:21:48;;;;;;;17.47;10.97;;;4.50;1.00;196.50;224877.00;;;;7392976;19;20147;-74
2022/03/21 06:24:23;;;;;;;16.20;11.80;;;4.50;1.00;196.50;224877.00;;;;7388869;19;20141;-76
2022/03/21 06:27:03;;;;;;;15.13;11.13;;;4.60;1.00;196.50;224877.00;;;;7387244;19;20172;-76
2022/03/21 06:29:41;;;;;;;18.20;11.30;;;4.70;1.00;196.50;224877.00;;;;7392695;19;20580;-75
2022/03/21 06:32:08;;;;;;;16.77;11.40;;;4.80;1.00;196.50;224877.00;;;;7391675;19;20133;-75
2022/03/21 06:34:36;;;;;;;15.73;11.67;;;5.00;1.00;196.50;224877.00;;;;7389808;19;20140;-76
2022/03/21 06:37:10;;;;;;;15.37;11.40;;;5.10;1.00;196.50;224877.00;;;;7386936;19;20172;-76
2022/03/21 06:39:37;;;;;;;14.63;10.93;;;5.20;1.00;196.50;224877.00;;;;7386637;19;20580;-76
2022/03/21 06:42:05;;;;;;;17.47;11.53;;;5.40;1.00;196.50;224877.00;;;;7388851;19;20133;-76
2022/03/21 06:44:40;;;;;;;15.17;11.70;;;5.60;1.00;196.50;224877.00;;;;7388169;19;20148;-76
2022/03/21 06:47:12;;;;;;;18.10;11.37;;;5.70;1.00;196.50;224877.00;;;;7391630;19;20605;-76
2022/03/21 06:49:39;;;;;;;16.93;12.33;;;5.80;1.00;196.50;224877.00;;;;7390324;19;20895;-75
2022/03/21 06:52:13;;;;;;;23.47;12.40;;;5.90;1.00;196.50;224877.00;;;;7387377;19;20125;-76
2022/03/21 06:54:43;;;;;;;16.53;11.73;;;6.10;1.00;196.50;224877.00;;;;7392191;19;20143;-76
2022/03/21 06:57:10;;;;;;;16.03;11.97;;;6.30;1.00;196.50;224877.00;;;;7390860;19;20611;-74
2022/03/21 06:59:46;;;;;;;15.20;11.80;;;6.50;1.00;196.50;224877.00;;;;7392373;19;20548;-76
2022/03/21 07:02:16;;;;;;;18.33;12.27;;;6.80;1.00;196.50;224877.00;;;;7390219;19;20613;-76
2022/03/21 07:04:44;;;;;;;16.80;12.43;;;7.10;1.00;196.50;224877.00;;;;7390577;19;20188;-75
2022/03/21 07:07:18;;;;;;;17.37;13.10;;;7.50;1.00;196.50;224877.00;;;;7390061;19;20162;-75
2022/03/21 07:09:45;;;;;;;14.73;11.60;;;7.80;1.00;196.50;224877.00;;;;7391041;19;20493;-76
2022/03/21 07:12:12;;;;;;;16.30;11.57;;;8.20;1.00;196.50;224877.00;;;;7391019;19;20128;-75
2022/03/21 07:14:48;;;;;;;15.75;11.68;;;8.50;1.00;196.50;224877.00;;;;7390283;19;20162;-75
2022/03/21 07:17:20;;;;;;;16.33;11.27;;;8.80;1.00;196.50;224877.00;;;;7390162;19;20140;-75
2022/03/21 07:19:54;;;;;;;16.67;12.73;;;9.20;1.00;196.50;224877.00;;;;7390757;19;20137;-74
2022/03/21 07:22:21;;;;;;;15.07;11.95;;;9.60;1.00;196.50;224877.00;;;;7390069;19;20138;-74
2022/03/21 07:24:49;;;;;;;13.25;10.98;;;9.80;1.00;196.50;224877.00;;;;7390280;19;20518;-74
2022/03/21 07:27:36;;;;;;;14.57;11.85;;;10.20;1.00;196.50;224877.00;;;;7388701;19;20192;-76
2022/03/21 07:30:12;;;;;;;14.82;12.10;;;10.60;1.00;196.50;224877.00;;;;7391683;19;20140;-75
2022/03/21 07:32:46;;;;;;;19.55;11.18;;;11.00;1.00;196.50;224877.00;;;;7390392;19;20599;-75
2022/03/21 07:35:14;;;;;;;15.45;11.05;;;11.30;1.00;196.50;224877.00;;;;7390087;19;20144;-74
2022/03/21 07:37:46;;;;;;;13.60;10.75;;;11.70;1.00;196.50;224877.00;;;;7390433;19;20128;-76
2022/03/21 07:40:20;;;;;;;15.18;11.10;;;11.90;1.00;196.50;224877.00;;;;7389879;19;20137;-75
2022/03/21 07:42:49;;;;;;;14.65;10.40;;;12.20;99.90;196.50;224877.00;;;;7388779;19;20612;-74
2022/03/21 07:48:11;;;;;;;11.32;9.55;;;12.80;99.90;196.50;224877.00;;;;7389276;19;20855;-75
2022/03/21 07:50:38;;;;;;;12.32;8.93;;;13.00;99.90;196.50;224877.00;;;;7389645;19;20137;-75
2022/03/21 07:53:05;;;;;;;11.73;8.52;;;13.10;99.90;196.50;224877.00;;;;7389039;19;20474;-74
2022/03/21 07:55:39;;;;;;;16.42;8.80;;;13.10;99.90;196.50;224877.00;;;;7389108;19;20165;-74
2022/03/21 07:58:06;;;;;;;11.25;9.05;;;13.30;99.90;196.50;224877.00;;;;7389926;19;20607;-74
2022/03/21 08:00:33;;;;;;;11.43;8.90;;;13.40;99.90;196.50;224877.00;;;;7388528;19;20137;-73
2022/03/21 08:03:15;;;;;;;13.68;8.52;;;13.50;99.90;196.50;224877.00;;;;7389104;19;20603;-74
2022/03/21 08:05:42;;;;;;;17.02;9.65;;;13.70;99.90;196.50;224877.00;;;;7396783;19;20121;-74
2022/03/21 08:08:16;;;;;;;14.35;11.05;;;13.80;99.90;196.50;224877.00;;;;7397000;19;20171;-73
2022/03/21 08:10:43;;;;;;;16.85;10.00;;;14.10;99.90;196.50;224877.00;;;;7395758;19;20229;-74
2022/03/21 08:13:13;;;;;;;12.02;9.40;;;14.10;99.90;196.50;224877.00;;;;7396582;19;20137;-74
2022/03/21 08:15:47;;;;;;;14.88;9.00;;;14.40;99.90;196.50;224877.00;;;;7397199;19;20113;-73
2022/03/21 08:18:15;;;;;;;11.35;8.90;;;14.50;99.90;196.50;224877.00;;;;7395730;19;20121;-75
2022/03/21 08:20:43;;;;;;;9.32;7.80;;;14.60;99.90;196.50;224877.00;;;;7396807;19;20129;-74
2022/03/21 08:23:17;;;;;;;8.95;7.47;;;14.80;99.90;196.50;224877.00;;;;7395295;19;20580;-76
2022/03/21 08:25:59;;;;;;;11.98;8.57;;;;;196.50;224877.00;;;;7394003;19;20191;-75
2022/03/21 08:28:33;;;;;;;12.23;8.00;;;15.20;99.90;196.50;224877.00;;;;7392175;19;20179;-74
2022/03/21 08:31:00;;;;;;;13.60;8.10;;;15.50;99.90;196.50;224877.00;;;;7392650;19;20141;-74
2022/03/21 08:33:27;;;;;;;11.02;6.75;;;15.60;99.90;196.50;224877.00;;;;7392738;19;20133;-74
2022/03/21 08:36:01;;;;;;;11.60;7.82;;;15.80;99.90;196.50;224877.00;;;;7390216;19;20166;-74
2022/03/21 08:38:28;;;;;;;10.40;7.25;;;16.00;99.90;196.50;224877.00;;;;7390710;19;20573;-74
2022/03/21 08:40:56;;;;;;;8.68;7.40;;;16.30;99.90;196.50;224877.00;;;;7395104;19;20136;-75
2022/03/21 08:43:30;;;;;;;9.55;6.82;;;16.40;99.90;196.50;224877.00;;;;7391306;19;20511;-73
2022/03/21 08:45:57;;;;;;;7.97;7.18;;;16.20;99.90;196.50;224877.00;;;;7395778;19;20125;-74
2022/03/21 08:49:23;;;;;;;10.75;6.32;;;15.80;99.90;196.50;224877.00;;;;7394311;19;20136;-75
2022/03/21 08:51:38;;;;;;;11.57;7.18;;;15.80;99.90;196.50;224877.00;;;;7394122;19;20166;-73
2022/03/21 08:54:07;;;;;;;10.85;6.90;;;16.10;99.90;196.50;224877.00;;;;7392691;19;20141;-75
2022/03/21 08:56:40;;;;;;;10.65;7.03;;;16.30;99.90;196.50;224877.00;;;;7395750;19;20128;-73
2022/03/21 08:59:08;;;;;;;12.77;7.80;;;16.60;99.90;196.50;224877.00;;;;7393905;19;20133;-73
2022/03/21 09:01:35;;;;;;;11.43;8.25;;;16.80;99.90;196.50;224877.00;;;;7394905;19;20125;-74
2022/03/21 09:04:09;;;;;;;10.23;7.53;;;17.00;99.90;196.50;224877.00;;;;7393205;19;20476;-74
2022/03/21 09:06:37;;;;;;;8.50;7.35;;;17.10;99.90;196.50;224877.00;;;;7394400;19;20180;-74
2022/03/21 09:09:05;;;;;;;12.90;7.43;;;17.40;99.90;196.50;224877.00;;;;7394253;19;20584;-76
2022/03/21 09:11:38;;;;;;;9.55;7.82;;;17.30;99.90;196.50;224877.00;;;;7394828;19;20140;-74
2022/03/21 09:14:08;;;;;;;11.43;7.75;;;17.70;99.90;196.50;224877.00;;;;7393291;19;20121;-76
2022/03/21 09:16:38;;;;;;;7.97;7.18;;;17.80;99.90;196.50;224877.00;;;;7392975;19;20128;-75
2022/03/21 09:19:13;;;;;;;10.00;7.65;;;17.90;99.90;196.50;224877.00;;;;7394497;19;20188;-73
2022/03/21 09:21:40;;;;;;;9.50;7.53;;;18.10;99.90;196.50;224877.00;;;;7393914;19;20137;-74
2022/03/21 09:24:07;;;;;;;14.27;7.25;;;18.00;99.90;196.50;224877.00;;;;7391925;19;20144;-73
2022/03/21 09:26:48;;;;;;;9.85;7.43;;;18.30;99.90;196.50;224877.00;;;;7392838;19;20189;-74
2022/03/21 09:29:16;;;;;;;10.32;7.95;;;18.40;99.90;196.50;224877.00;;;;7394229;19;20651;-74
2022/03/21 09:31:50;;;;;;;9.35;7.22;;;18.50;99.90;196.50;224877.00;;;;7393550;19;20136;-74
2022/03/21 09:34:18;;;;;;;12.73;7.70;;;18.70;99.90;196.50;224877.00;;;;7393265;19;20603;-76
2022/03/21 09:36:46;;;;;;;8.80;7.50;;;18.80;99.90;196.50;224877.00;;;;7394099;19;20150;-75
2022/03/21 09:39:20;;;;;;;10.68;7.45;;;18.70;99.90;196.50;224877.00;;;;7393431;19;20144;-74
2022/03/21 09:41:47;;;;;;;10.00;7.97;;;18.90;99.90;196.50;224877.00;;;;7392368;19;20175;-75
2022/03/21 09:44:15;;;;;;;11.00;7.00;;;18.70;99.90;196.50;224877.00;;;;7392653;19;20144;-75
2022/03/21 09:46:48;;;;;;;9.63;8.25;;;18.70;99.90;196.50;224877.00;;;;7392808;19;20162;-75
2022/03/21 09:49:16;;;;;;;12.77;7.55;;;18.60;99.90;196.50;224877.00;;;;7394136;19;20518;-74
2022/03/21 09:51:46;;;;;;;10.10;7.50;;;18.60;99.90;196.50;224877.00;;;;7393560;19;20209;-77
2022/03/21 09:54:19;;;;;;;10.77;6.93;;;18.80;99.90;196.50;224877.00;;;;7393624;19;20608;-75
2022/03/21 09:56:46;;;;;;;8.98;6.72;;;18.70;99.90;196.50;224877.00;;;;7392388;19;20140;-74
2022/03/21 09:59:13;;;;;;;9.40;7.28;;;19.00;99.90;196.50;224877.00;;;;7392551;19;20604;-77
2022/03/21 10:01:47;;;;;;;11.77;7.53;;;19.20;99.90;196.50;224877.00;;;;7392505;19;20162;-76
2022/03/21 10:04:14;;;;;;;8.98;7.35;;;19.20;99.90;196.50;224877.00;;;;7390707;19;20129;-76
2022/03/21 10:06:43;;;;;;;13.55;7.38;;;19.70;99.90;196.50;224877.00;;;;7392567;19;20176;-75
2022/03/21 10:09:19;;;;;;;8.98;7.50;;;19.80;99.90;196.50;224877.00;;;;7393316;19;20133;-75
2022/03/21 10:11:53;;;;;;;9.85;7.30;;;20.00;99.90;196.50;224877.00;;;;7392632;19;20592;-74
2022/03/21 10:14:32;;;;;;;9.18;7.72;;;20.20;99.90;196.50;224877.00;;;;7391731;19;20639;-76
2022/03/21 10:17:09;;;;;;;8.85;7.68;;;20.00;99.90;196.50;224877.00;;;;7392027;19;20144;-74
2022/03/21 10:19:48;;;;;;;11.82;7.25;;;20.10;99.90;196.50;224877.00;;;;7392470;19;20136;-75
2022/03/21 10:22:34;;;;;;;9.15;7.05;;;20.40;99.90;196.50;224877.00;;;;7391887;19;20484;-74
2022/03/21 10:25:15;;;;;;;8.73;7.55;;;20.60;99.90;196.50;224877.00;;;;7391409;19;20133;-73
2022/03/21 10:27:52;;;;;;;9.27;7.30;;;20.40;99.90;196.50;224877.00;;;;7386925;19;20587;-73
2022/03/21 10:30:26;;;;;;;9.60;6.38;;;19.90;99.90;196.50;224877.00;;;;7390990;19;20154;-77
2022/03/21 10:32:59;;;;;;;11.18;7.03;;;19.60;99.90;196.50;224877.00;;;;7392180;19;20677;-75
2022/03/21 10:35:31;;;;;;;8.80;6.07;;;19.60;99.90;196.50;224877.00;;;;7391556;19;20158;-74
2022/03/21 10:38:05;;;;;;;7.25;6.25;;;19.40;99.90;196.50;224877.00;;;;7391200;19;20642;-73
2022/03/21 10:40:41;;;;;;;9.02;5.88;;;19.20;99.90;196.50;224877.00;;;;7392694;19;20125;-74
2022/03/21 10:43:18;;;;;;;9.95;6.32;;;18.70;99.90;196.50;224877.00;;;;7391236;19;20588;-75
2022/03/21 10:45:49;;;;;;;9.10;6.47;;;18.60;99.90;196.50;224877.00;;;;7390957;19;20144;-74
2022/03/21 10:48:32;;;;;;;10.07;7.78;;;18.90;99.90;196.50;224877.00;;;;7385869;19;20528;-75
2022/03/21 10:51:02;;;;;;;10.30;8.13;;;19.10;99.90;196.50;224877.00;;;;7389424;19;20600;-74
2022/03/21 10:53:40;;;;;;;11.27;7.88;;;19.30;99.90;196.50;224877.00;;;;7391153;19;20145;-73
2022/03/21 10:56:10;;;;;;;10.90;7.80;;;19.50;99.90;196.50;224877.00;;;;7388357;19;20588;-76
2022/03/21 10:58:48;;;;;;;9.85;8.25;;;19.80;99.90;196.50;224877.00;;;;7389526;19;20162;-76
2022/03/21 11:01:23;;;;;;;11.25;8.60;;;19.80;99.90;196.50;224877.00;;;;7390440;19;20149;-74
2022/03/21 11:04:00;;;;;;;11.70;8.68;;;19.70;99.90;196.50;224877.00;;;;7390431;19;20133;-76
2022/03/21 11:06:28;;;;;;;11.07;9.30;;;20.10;99.90;196.50;224877.00;;;;7390261;19;20148;-73
2022/03/21 11:08:55;;;;;;;11.52;9.50;;;20.30;99.90;196.50;224877.00;;;;7389744;19;20136;-75
2022/03/21 11:11:29;;;;;;;11.98;9.68;;;20.30;99.90;196.50;224877.00;;;;7390691;19;20600;-76
2022/03/21 11:13:56;;;;;;;11.63;9.13;;;20.40;99.90;196.50;224877.00;;;;7390416;19;20595;-74
2022/03/21 11:16:24;;;;;;;13.10;9.43;;;20.70;99.90;196.50;224877.00;;;;7389407;19;20621;-75